Time;durP1;ratioP1;P1;durP2;ratioP2;P2;SDS_P1;SDS_P2;PMS_P1;PMS_P2;Temp;Humidity;BMP_temperature;BMP_pressure;BME280_temperature;BME280_humidity;BME280_pressure;Samples;Min_cycle;Max_cycle;Signal;HPM_P1;HPM_P2
2021/10/18 00:00:40;;;;;;;15.70;10.37;;;9.20;99.90;;;;;;6154492;28;20486;-65
2021/10/18 00:03:44;;;;;;;9.10;8.20;;;9.20;99.90;;;;;;6146242;28;20563;-65
2021/10/18 00:06:47;;;;;;;8.23;7.43;;;9.20;99.90;;;;;;6154479;28;20486;-65
2021/10/18 00:09:51;;;;;;;9.27;8.30;;;9.20;99.90;;;;;;6154621;28;20486;-66
2021/10/18 00:12:55;;;;;;;10.47;8.43;;;9.20;99.90;;;;;;6154505;28;20974;-66
2021/10/18 00:15:58;;;;;;;7.70;6.90;;;9.20;99.90;;;;;;6154295;28;20861;-65
2021/10/18 00:19:01;;;;;;;10.20;6.87;;;9.20;99.90;;;;;;6154752;28;20970;-65
2021/10/18 00:22:05;;;;;;;8.97;7.50;;;9.10;99.90;;;;;;6156130;28;20479;-66
2021/10/18 00:25:11;;;;;;;12.90;7.73;;;9.10;99.90;;;;;;6155681;28;20485;-65
2021/10/18 00:28:14;;;;;;;8.03;7.23;;;9.10;99.90;;;;;;6155129;28;20974;-65
2021/10/18 00:31:19;;;;;;;11.40;8.20;;;9.00;99.90;;;;;;6155212;28;20490;-64
2021/10/18 00:34:22;;;;;;;8.27;7.23;;;9.00;99.90;;;;;;6155084;28;20478;-66
2021/10/18 00:37:25;;;;;;;8.17;7.17;;;9.00;99.90;;;;;;6156206;28;20831;-64
2021/10/18 00:40:30;;;;;;;7.10;6.40;;;9.00;99.90;;;;;;6157360;28;20485;-64
2021/10/18 00:43:33;;;;;;;6.87;6.30;;;9.00;99.90;;;;;;6154101;28;20931;-63
2021/10/18 00:46:36;;;;;;;9.37;6.20;;;8.90;99.90;;;;;;6154564;28;20486;-62
2021/10/18 00:49:39;;;;;;;8.30;6.67;;;8.90;99.90;;;;;;6154688;28;20470;-62
2021/10/18 00:52:43;;;;;;;7.40;6.70;;;8.90;99.90;;;;;;6154531;28;21002;-63
2021/10/18 00:55:48;;;;;;;9.30;8.30;;;8.90;99.90;;;;;;6154531;28;20996;-62
2021/10/18 00:58:51;;;;;;;9.03;7.10;;;8.90;99.90;;;;;;6153738;28;20979;-62
2021/10/18 01:01:55;;;;;;;10.10;7.40;;;8.90;99.90;;;;;;6154696;28;20482;-64
2021/10/18 01:04:59;;;;;;;8.17;7.00;;;8.90;99.90;;;;;;6154693;28;20570;-62
2021/10/18 01:08:02;;;;;;;7.40;6.70;;;8.80;99.90;;;;;;6150076;28;20489;-62
2021/10/18 01:11:10;;;;;;;7.70;7.00;;;8.80;99.90;;;;;;6154575;28;20506;-61
2021/10/18 01:14:13;;;;;;;10.37;7.80;;;8.80;99.90;;;;;;6154269;28;20489;-61
2021/10/18 01:17:16;;;;;;;7.47;6.80;;;8.80;99.90;;;;;;6154068;28;20487;-63
2021/10/18 01:20:29;;;;;;;10.80;6.60;;;8.80;99.90;;;;;;6154093;28;20486;-63
2021/10/18 01:23:32;;;;;;;7.73;6.93;;;8.80;99.90;;;;;;6154383;28;20478;-64
2021/10/18 01:26:35;;;;;;;8.37;5.97;;;8.80;99.90;;;;;;6154553;28;20485;-64
2021/10/18 01:29:39;;;;;;;8.80;7.30;;;8.80;99.90;;;;;;6154470;28;20471;-62
2021/10/18 01:32:43;;;;;;;7.77;6.60;;;8.80;99.90;;;;;;6153381;28;20478;-63
2021/10/18 01:35:47;;;;;;;7.40;6.63;;;8.70;99.90;;;;;;6153591;28;20478;-63
2021/10/18 01:38:50;;;;;;;7.03;6.33;;;8.70;99.90;;;;;;6153478;28;20486;-63
2021/10/18 01:41:54;;;;;;;6.33;5.73;;;8.70;99.90;;;;;;6153480;28;21012;-62
2021/10/18 01:44:57;;;;;;;9.50;6.90;;;8.70;99.90;;;;;;6153387;28;20493;-63
2021/10/18 01:48:00;;;;;;;10.80;9.53;;;8.70;99.90;;;;;;6153248;28;20978;-62
2021/10/18 01:51:08;;;;;;;13.40;9.80;;;8.70;99.90;;;;;;6152915;28;20773;-62
2021/10/18 01:54:11;;;;;;;14.40;11.90;;;8.70;99.90;;;;;;6153813;28;20451;-62
2021/10/18 01:57:14;;;;;;;17.30;14.37;;;8.70;99.90;;;;;;6152824;28;20788;-63
2021/10/18 02:00:18;;;;;;;17.93;14.10;;;8.70;99.90;;;;;;6153436;28;20482;-62
2021/10/18 02:03:21;;;;;;;17.50;14.40;;;8.70;99.90;;;;;;6153291;28;20450;-62
2021/10/18 02:06:26;;;;;;;18.13;14.97;;;8.60;99.90;;;;;;6153432;28;20481;-62
2021/10/18 02:09:29;;;;;;;17.20;15.30;;;8.60;99.90;;;;;;6152856;28;20533;-62
2021/10/18 02:12:32;;;;;;;15.43;13.50;;;8.60;99.90;;;;;;6140272;28;20486;-62
2021/10/18 02:15:36;;;;;;;12.57;11.27;;;8.60;99.90;;;;;;6152928;28;20474;-63
2021/10/18 02:18:39;;;;;;;12.53;11.13;;;8.60;99.90;;;;;;6152952;28;21030;-63
2021/10/18 02:21:43;;;;;;;10.13;9.13;;;8.50;99.90;;;;;;6152840;28;20493;-63
2021/10/18 02:24:47;;;;;;;10.93;8.60;;;8.50;99.90;;;;;;6153214;28;20475;-63
2021/10/18 02:27:50;;;;;;;7.97;7.10;;;8.50;99.90;;;;;;6153236;28;20490;-63
2021/10/18 02:30:53;;;;;;;8.53;7.73;;;8.50;99.90;;;;;;6152978;28;20474;-63
2021/10/18 02:33:57;;;;;;;7.50;6.80;;;8.40;99.90;;;;;;6153010;28;20550;-63
2021/10/18 02:37:01;;;;;;;8.23;7.20;;;8.40;99.90;;;;;;6152675;28;20490;-63
2021/10/18 02:40:05;;;;;;;7.10;5.70;;;8.50;99.90;;;;;;6152902;28;20467;-63
2021/10/18 02:43:08;;;;;;;6.60;5.90;;;8.40;99.90;;;;;;6152679;28;20485;-63
2021/10/18 02:46:11;;;;;;;8.50;7.23;;;8.40;99.90;;;;;;6151868;28;20489;-63
2021/10/18 02:49:15;;;;;;;6.93;6.30;;;8.40;99.90;;;;;;6152939;28;20466;-63
2021/10/18 02:52:19;;;;;;;6.90;5.73;;;8.40;99.90;;;;;;6153473;28;20481;-63
2021/10/18 02:55:22;;;;;;;7.03;6.33;;;8.40;99.90;;;;;;6152373;28;20474;-63
2021/10/18 02:58:25;;;;;;;6.27;5.67;;;8.40;99.90;;;;;;6152374;28;20546;-63
2021/10/18 03:01:29;;;;;;;6.50;5.73;;;8.40;99.90;;;;;;6152583;28;20824;-63
2021/10/18 03:04:32;;;;;;;7.67;6.80;;;8.40;99.90;;;;;;6152584;28;20985;-63
2021/10/18 03:07:36;;;;;;;6.93;6.33;;;8.40;99.90;;;;;;6155079;28;20562;-63
2021/10/18 03:10:41;;;;;;;6.50;5.90;;;8.40;99.90;;;;;;6156484;28;20970;-63
2021/10/18 03:13:44;;;;;;;7.13;6.43;;;8.40;99.90;;;;;;6156923;28;20475;-63
2021/10/18 03:16:47;;;;;;;6.67;6.03;;;8.40;99.90;;;;;;6148158;28;20789;-63
2021/10/18 03:19:50;;;;;;;6.47;5.90;;;8.40;99.90;;;;;;6157275;28;20497;-62
2021/10/18 03:22:56;;;;;;;6.93;6.27;;;8.30;99.90;;;;;;6157199;28;20486;-62
2021/10/18 03:25:59;;;;;;;5.93;5.40;;;8.30;99.90;;;;;;6156654;28;20487;-62
2021/10/18 03:29:03;;;;;;;5.83;5.33;;;8.30;99.90;;;;;;6156641;28;20571;-62
2021/10/18 03:32:07;;;;;;;6.67;6.07;;;8.40;99.90;;;;;;6156406;28;20482;-62
2021/10/18 03:35:10;;;;;;;5.80;5.30;;;8.30;99.90;;;;;;6156315;28;20481;-62
2021/10/18 03:38:14;;;;;;;6.50;5.90;;;8.30;99.90;;;;;;6156450;28;20489;-62
2021/10/18 03:41:18;;;;;;;6.00;5.47;;;8.40;99.90;;;;;;6156015;28;20483;-62
2021/10/18 03:44:21;;;;;;;5.80;5.30;;;8.30;99.90;;;;;;6155881;28;20482;-62
2021/10/18 03:47:25;;;;;;;7.83;6.10;;;8.30;99.90;;;;;;6156219;28;20490;-63
2021/10/18 03:50:28;;;;;;;7.20;6.60;;;8.20;99.90;;;;;;6155864;28;20474;-63
2021/10/18 03:53:32;;;;;;;7.07;6.37;;;8.30;99.90;;;;;;6156344;28;20493;-62
2021/10/18 03:56:35;;;;;;;6.30;5.70;;;8.20;99.90;;;;;;6155410;28;20819;-62
2021/10/18 03:59:38;;;;;;;7.53;5.80;;;8.20;99.90;;;;;;6155599;28;20482;-62
2021/10/18 04:02:42;;;;;;;5.87;5.30;;;8.20;99.90;;;;;;6155676;28;20478;-62
2021/10/18 04:05:45;;;;;;;5.80;5.30;;;8.20;99.90;;;;;;6155404;28;20549;-63
2021/10/18 04:08:51;;;;;;;6.03;5.10;;;8.30;99.90;;;;;;6155641;28;20482;-63
2021/10/18 04:11:54;;;;;;;6.20;5.60;;;8.20;99.90;;;;;;6155755;28;20470;-63
2021/10/18 04:14:57;;;;;;;7.30;5.53;;;8.20;99.90;;;;;;6155620;28;20482;-63
2021/10/18 04:18:00;;;;;;;6.80;6.10;;;8.20;99.90;;;;;;6154669;28;20832;-63
2021/10/18 04:21:05;;;;;;;6.57;5.97;;;8.20;99.90;;;;;;6153043;28;20488;-63
2021/10/18 04:24:10;;;;;;;6.90;6.30;;;8.20;99.90;;;;;;6155791;28;20451;-62
2021/10/18 04:27:13;;;;;;;6.90;4.80;;;8.20;99.90;;;;;;6154812;28;20470;-62
2021/10/18 04:30:16;;;;;;;6.87;6.10;;;8.20;99.90;;;;;;6154780;28;20469;-62
2021/10/18 04:33:20;;;;;;;6.77;6.13;;;8.20;99.90;;;;;;6156005;28;20454;-62
2021/10/18 04:36:24;;;;;;;7.13;6.43;;;8.20;99.90;;;;;;6154988;28;20481;-63
2021/10/18 04:39:28;;;;;;;6.00;5.40;;;8.20;99.90;;;;;;6154881;28;20529;-63
2021/10/18 04:42:31;;;;;;;5.87;5.27;;;8.20;99.90;;;;;;6154608;28;20483;-64
2021/10/18 04:45:35;;;;;;;9.07;7.20;;;8.20;99.90;;;;;;6155001;28;20473;-64
2021/10/18 04:48:38;;;;;;;6.90;6.30;;;8.20;99.90;;;;;;6154647;28;20475;-62
2021/10/18 04:51:41;;;;;;;6.80;6.20;;;8.20;99.90;;;;;;6155199;28;20513;-62
2021/10/18 04:54:45;;;;;;;7.33;6.67;;;8.20;99.90;;;;;;6154635;28;20486;-62
2021/10/18 04:57:50;;;;;;;8.27;6.50;;;8.20;99.90;;;;;;6154415;28;20474;-64
2021/10/18 05:00:56;;;;;;;8.27;6.70;;;8.20;99.90;;;;;;6154184;28;20466;-64
2021/10/18 05:03:59;;;;;;;6.80;6.20;;;8.10;99.90;;;;;;6154270;28;20933;-63
2021/10/18 05:07:02;;;;;;;7.13;6.40;;;8.10;99.90;;;;;;6154502;28;20482;-63
2021/10/18 05:10:10;;;;;;;9.77;7.30;;;8.10;99.90;;;;;;6154262;28;20485;-63
2021/10/18 05:13:16;;;;;;;8.37;7.40;;;8.10;99.90;;;;;;6154513;28;20490;-63
2021/10/18 05:16:19;;;;;;;7.47;6.77;;;8.10;99.90;;;;;;6154224;28;20822;-63
2021/10/18 05:19:22;;;;;;;7.33;6.63;;;8.20;99.90;;;;;;6154751;28;20550;-63
2021/10/18 05:22:25;;;;;;;7.97;6.93;;;8.10;99.90;;;;;;6154303;28;20482;-62
2021/10/18 05:25:30;;;;;;;7.40;6.60;;;8.10;99.90;;;;;;6154213;28;20474;-63
2021/10/18 05:28:33;;;;;;;8.07;7.27;;;8.20;99.90;;;;;;6153719;28;20470;-63
2021/10/18 05:31:37;;;;;;;9.00;8.10;;;8.20;99.90;;;;;;6153773;28;20473;-62
2021/10/18 05:34:40;;;;;;;11.37;7.63;;;8.20;99.90;;;;;;6154234;28;20478;-63
2021/10/18 05:37:45;;;;;;;8.50;7.60;;;8.20;99.90;;;;;;6155665;28;20474;-63
2021/10/18 05:40:50;;;;;;;8.13;7.33;;;8.20;99.90;;;;;;6155613;28;20809;-63
2021/10/18 05:43:53;;;;;;;9.50;7.00;;;8.20;99.90;;;;;;6154099;28;20482;-65
2021/10/18 05:46:56;;;;;;;9.93;7.80;;;8.20;99.90;;;;;;6153933;28;20478;-63
2021/10/18 05:50:00;;;;;;;8.97;8.07;;;8.30;99.90;;;;;;6153859;28;20486;-66
2021/10/18 05:53:03;;;;;;;9.70;8.67;;;8.30;99.90;;;;;;6153648;28;20482;-65
2021/10/18 05:56:08;;;;;;;10.70;8.60;;;8.40;99.90;;;;;;6153302;28;20524;-65
2021/10/18 05:59:11;;;;;;;13.37;8.60;;;8.50;99.90;;;;;;6153207;28;20466;-65
2021/10/18 06:02:15;;;;;;;11.83;8.07;;;8.60;99.90;;;;;;6152444;28;20877;-66
2021/10/18 06:05:18;;;;;;;9.77;7.93;;;8.70;99.90;;;;;;6153238;28;20537;-65
2021/10/18 06:08:21;;;;;;;7.57;6.80;;;8.80;99.90;;;;;;6152718;28;20479;-65
2021/10/18 06:11:26;;;;;;;10.17;8.03;;;8.90;99.90;;;;;;6153066;28;20482;-62
2021/10/18 06:14:30;;;;;;;8.40;7.07;;;9.00;99.90;;;;;;6154673;28;20480;-63
2021/10/18 06:17:33;;;;;;;7.90;7.10;;;9.20;99.90;;;;;;6154903;28;20963;-63
2021/10/18 06:20:36;;;;;;;8.57;7.67;;;9.30;99.90;;;;;;6155481;28;20474;-63
2021/10/18 06:23:39;;;;;;;9.17;8.07;;;9.40;99.90;;;;;;6155994;28;20481;-63
2021/10/18 06:26:44;;;;;;;10.10;9.17;;;9.50;99.90;;;;;;6156052;28;20479;-63
2021/10/18 06:29:47;;;;;;;9.17;7.93;;;9.60;99.90;;;;;;6154902;28;20482;-63
2021/10/18 06:32:50;;;;;;;11.67;8.47;;;9.70;99.90;;;;;;6154244;28;20477;-64
2021/10/18 06:35:53;;;;;;;9.97;8.20;;;9.90;99.90;;;;;;6154817;28;20990;-63
2021/10/18 06:38:56;;;;;;;7.67;6.97;;;10.00;99.90;;;;;;6155338;28;20470;-64
2021/10/18 06:42:01;;;;;;;8.90;8.00;;;10.10;99.90;;;;;;6158732;28;20491;-64
2021/10/18 06:45:04;;;;;;;9.87;8.00;;;10.30;99.90;;;;;;6159828;28;20458;-64
2021/10/18 06:48:08;;;;;;;12.07;8.77;;;10.40;99.90;;;;;;6158806;28;20805;-63
2021/10/18 06:51:11;;;;;;;8.40;7.40;;;10.50;99.90;;;;;;6158365;28;20447;-63
2021/10/18 06:54:14;;;;;;;13.23;9.33;;;10.60;99.90;;;;;;6158926;28;20453;-64
2021/10/18 06:57:19;;;;;;;8.13;7.07;;;10.80;99.90;;;;;;6158423;28;20486;-64
2021/10/18 07:00:22;;;;;;;9.70;8.00;;;11.00;99.90;;;;;;6157991;28;20903;-64
2021/10/18 07:03:25;;;;;;;10.23;8.30;;;11.20;99.90;;;;;;6158559;28;20898;-64
2021/10/18 07:06:28;;;;;;;8.07;7.27;;;11.40;99.90;;;;;;6158866;28;20489;-64
2021/10/18 07:09:32;;;;;;;12.07;8.87;;;11.50;99.90;;;;;;6158745;28;21007;-64
2021/10/18 07:12:37;;;;;;;9.53;7.77;;;11.70;99.90;;;;;;6157688;28;20977;-62
2021/10/18 07:15:40;;;;;;;10.17;8.13;;;11.80;99.90;;;;;;6158064;28;20471;-64
2021/10/18 07:18:44;;;;;;;10.73;8.47;;;11.90;99.80;;;;;;6157372;28;20485;-63
2021/10/18 07:21:47;;;;;;;10.30;8.83;;;12.00;99.80;;;;;;6158173;28;20805;-64
2021/10/18 07:24:50;;;;;;;10.67;8.67;;;12.20;99.60;;;;;;6158678;28;20481;-64
2021/10/18 07:27:55;;;;;;;8.70;7.67;;;12.30;99.40;;;;;;6158799;28;20509;-64
2021/10/18 07:30:59;;;;;;;9.90;8.73;;;12.50;99.10;;;;;;6147666;28;20475;-65
2021/10/18 07:34:05;;;;;;;13.30;8.77;;;12.70;98.80;;;;;;6156851;28;20474;-66
2021/10/18 07:37:11;;;;;;;11.40;9.00;;;12.90;98.60;;;;;;6156856;28;20502;-64
2021/10/18 07:40:14;;;;;;;10.40;7.93;;;13.10;97.80;;;;;;6158014;28;20966;-64
2021/10/18 07:43:19;;;;;;;11.77;8.57;;;13.10;97.80;;;;;;6158299;28;20489;-64
2021/10/18 07:46:23;;;;;;;13.20;8.83;;;13.30;97.70;;;;;;6157619;28;20470;-64
2021/10/18 07:49:28;;;;;;;10.77;9.50;;;13.40;97.50;;;;;;6155866;28;20477;-64
2021/10/18 07:52:31;;;;;;;15.27;8.57;;;13.50;97.30;;;;;;6155576;28;20482;-64
2021/10/18 07:55:37;;;;;;;12.60;8.40;;;13.60;97.10;;;;;;6155941;28;20475;-65
2021/10/18 07:58:56;;;;;;;10.67;9.27;;;13.70;96.80;;;;;;6155926;28;20554;-66
2021/10/18 08:02:00;;;;;;;11.13;8.73;;;13.70;96.40;;;;;;6155693;28;20489;-63
2021/10/18 08:05:04;;;;;;;11.27;10.00;;;13.80;96.60;;;;;;6156523;28;20478;-64
2021/10/18 08:08:10;;;;;;;10.73;9.63;;;13.90;96.20;;;;;;6157664;28;20493;-64
2021/10/18 08:11:13;;;;;;;9.63;8.63;;;14.20;95.70;;;;;;6155935;28;20489;-65
2021/10/18 08:14:18;;;;;;;8.00;7.20;;;14.70;94.90;;;;;;6156822;28;20470;-62
2021/10/18 08:17:21;;;;;;;13.60;9.60;;;15.30;94.00;;;;;;6155204;28;20927;-64
2021/10/18 08:20:24;;;;;;;11.93;8.90;;;15.90;92.60;;;;;;6155228;28;20481;-65
2021/10/18 08:23:28;;;;;;;16.00;8.90;;;16.30;91.90;;;;;;6156770;28;20525;-63
2021/10/18 08:26:31;;;;;;;11.23;8.20;;;17.20;90.70;;;;;;6158781;28;20793;-64
2021/10/18 08:29:35;;;;;;;11.70;8.40;;;18.60;85.80;;;;;;6156398;28;20474;-65
2021/10/18 08:32:39;;;;;;;9.27;8.37;;;19.60;79.20;;;;;;6155477;28;20467;-63
2021/10/18 08:35:43;;;;;;;9.20;8.20;;;20.30;74.80;;;;;;6151875;28;20533;-64
2021/10/18 08:38:49;;;;;;;9.97;7.90;;;20.70;70.00;;;;;;6154487;28;20238;-64
2021/10/18 08:41:55;;;;;;;10.53;8.33;;;20.80;67.00;;;;;;6156384;28;20239;-63
2021/10/18 08:45:00;;;;;;;10.87;8.87;;;20.90;66.20;;;;;;6149754;28;20223;-64
2021/10/18 08:48:09;;;;;;;10.63;9.23;;;21.00;64.40;;;;;;6152718;28;20235;-63
2021/10/18 08:51:13;;;;;;;14.93;12.80;;;21.20;64.20;;;;;;6153192;28;20200;-64
2021/10/18 08:54:16;;;;;;;19.83;12.20;;;21.50;63.40;;;;;;6153666;28;20207;-63
2021/10/18 08:57:29;;;;;;;13.57;12.17;;;21.90;61.20;;;;;;6153015;28;20246;-65
2021/10/18 09:00:46;;;;;;;18.70;12.30;;;22.70;59.50;;;;;;6153370;28;20241;-64
2021/10/18 09:03:49;;;;;;;14.37;11.73;;;23.40;56.70;;;;;;6152675;28;20675;-64
2021/10/18 09:06:54;;;;;;;13.27;11.90;;;23.50;54.40;;;;;;6152904;28;20238;-64
2021/10/18 09:09:57;;;;;;;13.13;11.93;;;23.00;54.30;;;;;;6152966;28;20231;-64
2021/10/18 09:13:10;;;;;;;15.30;11.57;;;22.60;55.00;;;;;;6152866;28;20238;-65
2021/10/18 09:16:24;;;;;;;16.73;14.33;;;22.60;55.00;;;;;;6152479;28;20577;-66
2021/10/18 09:19:28;;;;;;;14.07;12.57;;;22.80;54.70;;;;;;6152906;28;20330;-65
2021/10/18 09:22:31;;;;;;;14.07;12.57;;;23.20;54.40;;;;;;6152368;28;20599;-64
2021/10/18 09:25:36;;;;;;;15.30;13.20;;;23.60;53.20;;;;;;6152683;28;20245;-65
2021/10/18 09:28:39;;;;;;;15.87;14.07;;;24.60;51.70;;;;;;6152926;28;20741;-63
2021/10/18 09:31:57;;;;;;;14.77;13.30;;;25.50;49.40;;;;;;6152614;28;20241;-63
2021/10/18 09:35:05;;;;;;;15.07;13.57;;;24.60;49.10;;;;;;6152380;28;20250;-63
2021/10/18 09:38:11;;;;;;;18.63;13.20;;;24.10;50.80;;;;;;6152184;28;20231;-63
2021/10/18 09:41:14;;;;;;;15.10;12.20;;;24.80;49.70;;;;;;6138835;28;20242;-65
2021/10/18 09:45:01;;;;;;;16.60;12.40;;;26.30;47.20;;;;;;6152010;28;20322;-64
2021/10/18 10:52:58;;;;;;;9.23;8.53;;;28.20;39.70;;;;;;6155944;28;20565;-65
2021/10/18 10:56:19;;;;;;;10.23;9.13;;;28.60;39.10;;;;;;6155745;28;20230;-65
2021/10/18 10:59:25;;;;;;;9.97;8.43;;;30.80;36.30;;;;;;6155637;28;20671;-66
2021/10/18 11:02:32;;;;;;;10.82;9.07;;;32.20;33.40;;;;;;6155266;28;20234;-65
2021/10/18 11:05:55;;;;;;;9.68;8.60;;;34.00;30.90;;;;;;6156011;28;20235;-64
2021/10/18 11:08:59;;;;;;;10.45;8.73;;;33.50;29.90;;;;;;6155575;28;20249;-65
2021/10/18 11:12:02;;;;;;;10.07;9.07;;;34.40;29.30;;;;;;6155653;28;20230;-63
2021/10/18 11:15:08;;;;;;;10.10;9.05;;;36.60;27.80;;;;;;6154843;28;20241;-64
2021/10/18 11:18:15;;;;;;;10.40;9.70;;;38.80;25.80;;;;;;6155031;28;20246;-64
2021/10/18 11:21:22;;;;;;;9.73;8.93;;;39.80;24.30;;;;;;6132448;28;20206;-65
2021/10/18 11:24:37;;;;;;;9.45;8.60;;;40.00;23.40;;;;;;6133587;28;20257;-64
2021/10/18 11:27:42;;;;;;;9.00;8.13;;;40.80;22.80;;;;;;6131592;28;20231;-65
2021/10/18 11:30:45;;;;;;;8.48;7.78;;;41.20;21.80;;;;;;6131312;28;20238;-65
2021/10/18 11:34:09;;;;;;;8.77;8.18;;;42.20;21.60;;;;;;6151839;28;20264;-66
2021/10/18 11:37:12;;;;;;;9.63;8.82;;;42.30;21.00;;;;;;6154552;28;20234;-67
2021/10/18 11:40:17;;;;;;;9.25;8.55;;;42.60;20.50;;;;;;6154298;28;20242;-66
2021/10/18 11:43:23;;;;;;;9.07;7.97;;;41.30;20.90;;;;;;6154232;28;20226;-66
2021/10/18 11:46:38;;;;;;;8.30;7.53;;;41.00;20.80;;;;;;6154741;28;20258;-64
2021/10/18 11:49:42;;;;;;;9.13;8.23;;;39.70;22.10;;;;;;6154321;28;20234;-63
2021/10/18 11:52:54;;;;;;;9.23;8.43;;;39.10;22.60;;;;;;6152934;28;20575;-64
2021/10/18 11:56:00;;;;;;;10.50;7.57;;;39.90;21.80;;;;;;6153982;28;20238;-65
2021/10/18 11:59:05;;;;;;;9.15;8.35;;;39.90;21.60;;;;;;6154209;28;20242;-64
2021/10/18 12:02:20;;;;;;;9.70;8.75;;;37.30;22.80;;;;;;6154114;28;20238;-64
2021/10/18 12:05:25;;;;;;;8.98;8.30;;;34.20;25.20;;;;;;6153803;28;20249;-64
2021/10/18 12:08:30;;;;;;;9.25;8.43;;;33.50;26.70;;;;;;6153487;28;20587;-66
2021/10/18 12:11:33;;;;;;;10.15;8.05;;;35.20;25.50;;;;;;6153725;28;20234;-66
2021/10/18 12:14:50;;;;;;;8.43;7.63;;;35.90;24.90;;;;;;6153426;28;20237;-65
2021/10/18 12:17:54;;;;;;;8.40;7.72;;;37.90;23.70;;;;;;6129731;28;20584;-65
2021/10/18 12:21:03;;;;;;;8.20;7.60;;;38.90;22.30;;;;;;6150647;28;20663;-66
2021/10/18 12:24:07;;;;;;;8.55;7.68;;;39.00;22.50;;;;;;6149838;28;20219;-64
2021/10/18 12:27:13;;;;;;;8.75;7.93;;;40.40;21.90;;;;;;6129848;28;20231;-64
2021/10/18 12:30:39;;;;;;;8.40;7.68;;;41.10;21.10;;;;;;6129421;28;20203;-65
2021/10/18 12:33:42;;;;;;;8.18;7.57;;;40.90;20.50;;;;;;6129623;28;20565;-65
2021/10/18 12:37:01;;;;;;;8.45;7.65;;;40.70;20.90;;;;;;6129496;28;20235;-65
2021/10/18 12:40:05;;;;;;;8.18;7.32;;;39.50;21.30;;;;;;6142249;28;20543;-66
2021/10/18 12:43:27;;;;;;;8.80;8.00;;;39.30;21.70;;;;;;6152707;28;20245;-66
2021/10/18 12:46:30;;;;;;;8.55;7.63;;;37.30;22.60;;;;;;6153041;28;20234;-66
2021/10/18 12:49:33;;;;;;;7.90;7.22;;;34.10;24.90;;;;;;6144226;28;20234;-66
2021/10/18 12:52:40;;;;;;;8.02;7.32;;;31.30;27.50;;;;;;6153399;28;20237;-65
2021/10/18 12:55:44;;;;;;;8.60;7.87;;;29.30;29.50;;;;;;6152583;28;20230;-65
2021/10/18 12:58:47;;;;;;;10.80;8.27;;;27.40;31.80;;;;;;6152898;28;20257;-66
2021/10/18 13:02:24;;;;;;;8.20;7.33;;;25.90;34.90;;;;;;6152826;28;20261;-65
2021/10/18 13:05:29;;;;;;;8.53;7.73;;;24.80;37.90;;;;;;6152557;28;20883;-64
2021/10/18 13:08:34;;;;;;;9.03;7.60;;;26.20;36.00;;;;;;6152264;28;20721;-64
2021/10/18 13:11:41;;;;;;;8.67;7.60;;;28.10;33.20;;;;;;6152264;28;20257;-65
2021/10/18 13:14:44;;;;;;;11.63;9.53;;;27.60;33.10;;;;;;6152447;28;20234;-64
2021/10/18 13:17:49;;;;;;;9.13;7.70;;;25.80;35.60;;;;;;6144220;28;20231;-64
2021/10/18 13:20:58;;;;;;;10.00;8.43;;;25.30;36.80;;;;;;6148518;28;20235;-64
2021/10/18 13:24:04;;;;;;;8.87;7.97;;;25.10;37.00;;;;;;6152189;28;20227;-64
2021/10/18 13:27:08;;;;;;;9.60;7.70;;;24.20;38.10;;;;;;6151800;28;20239;-64
2021/10/18 13:30:12;;;;;;;8.77;7.90;;;23.40;39.80;;;;;;6151842;28;20567;-63
2021/10/18 13:33:21;;;;;;;8.63;7.83;;;22.80;41.30;;;;;;6151823;28;20581;-64
2021/10/18 13:36:26;;;;;;;10.50;7.67;;;23.70;40.70;;;;;;6130218;28;20215;-63
2021/10/18 13:39:30;;;;;;;9.50;8.50;;;23.40;40.30;;;;;;6137394;28;20230;-64
2021/10/18 13:42:34;;;;;;;8.10;7.30;;;22.60;41.30;;;;;;6150845;28;20231;-65
2021/10/18 13:45:38;;;;;;;8.40;7.47;;;21.90;42.60;;;;;;6151293;28;20234;-65
2021/10/18 13:48:41;;;;;;;19.07;7.10;;;21.40;44.00;;;;;;6152003;28;20231;-66
2021/10/18 13:51:44;;;;;;;9.60;7.20;;;21.00;44.40;;;;;;6142282;28;20242;-63
2021/10/18 13:54:52;;;;;;;9.30;7.13;;;20.70;45.20;;;;;;6148702;28;20234;-64
2021/10/18 13:57:56;;;;;;;7.93;6.93;;;20.30;46.60;;;;;;6151080;28;20609;-64
2021/10/18 14:00:59;;;;;;;7.33;6.73;;;19.90;47.90;;;;;;6150808;28;20691;-64
2021/10/18 14:04:04;;;;;;;8.87;8.07;;;19.10;49.50;;;;;;6150243;28;20234;-63
2021/10/18 14:07:13;;;;;;;7.67;6.70;;;18.80;50.50;;;;;;6150828;28;20305;-63
2021/10/18 14:10:18;;;;;;;12.33;8.20;;;18.40;51.80;;;;;;6151165;28;20246;-63
2021/10/18 14:13:23;;;;;;;8.80;7.00;;;18.30;52.20;;;;;;6151224;28;20485;-63
2021/10/18 14:16:26;;;;;;;8.87;7.97;;;18.30;52.30;;;;;;6151199;28;20486;-64
2021/10/18 14:19:30;;;;;;;7.30;6.60;;;18.30;53.00;;;;;;6151502;28;20365;-64
2021/10/18 14:22:33;;;;;;;8.30;7.20;;;18.10;53.50;;;;;;6150754;28;20482;-64
2021/10/18 14:25:38;;;;;;;9.07;7.30;;;18.00;53.80;;;;;;6151406;28;20478;-63
2021/10/18 14:28:41;;;;;;;9.93;7.70;;;17.70;54.70;;;;;;6151137;28;20474;-64
2021/10/18 14:31:44;;;;;;;7.17;6.47;;;17.70;55.10;;;;;;6151004;28;20467;-64
2021/10/18 14:34:47;;;;;;;9.77;7.30;;;17.70;55.50;;;;;;6151029;28;20481;-63
2021/10/18 14:37:50;;;;;;;8.90;6.87;;;17.60;55.80;;;;;;6151038;28;20501;-62
2021/10/18 14:40:55;;;;;;;9.33;7.83;;;17.60;56.10;;;;;;6151003;28;20493;-63
2021/10/18 14:44:01;;;;;;;7.00;6.40;;;17.40;56.70;;;;;;6150388;28;20491;-64
2021/10/18 14:47:04;;;;;;;8.87;6.87;;;17.20;57.20;;;;;;6147334;28;20490;-63
2021/10/18 14:50:09;;;;;;;8.77;7.10;;;17.10;58.10;;;;;;6137684;28;20542;-64
2021/10/18 14:53:12;;;;;;;8.77;7.50;;;16.80;58.80;;;;;;6130558;28;20474;-63
2021/10/18 14:56:34;;;;;;;12.17;7.33;;;16.70;59.40;;;;;;6125064;28;20516;-65
2021/10/18 14:59:37;;;;;;;7.63;6.97;;;16.30;61.00;;;;;;6131740;28;20478;-64
2021/10/18 15:02:44;;;;;;;9.50;6.63;;;16.20;61.50;;;;;;6134560;28;20486;-63
2021/10/18 15:05:47;;;;;;;8.70;7.90;;;16.20;62.50;;;;;;6154498;28;20485;-64
2021/10/18 15:08:51;;;;;;;8.17;7.10;;;16.10;62.80;;;;;;6144857;28;20565;-64
2021/10/18 15:11:56;;;;;;;8.53;7.73;;;16.10;63.30;;;;;;6155160;28;20489;-63
2021/10/18 15:14:59;;;;;;;9.63;7.60;;;15.90;63.90;;;;;;6151689;28;21003;-63
2021/10/18 15:18:02;;;;;;;13.37;8.43;;;15.90;64.30;;;;;;6132001;28;20479;-62
2021/10/18 15:21:06;;;;;;;8.53;7.73;;;15.90;64.50;;;;;;6154348;28;20482;-65
2021/10/18 15:24:11;;;;;;;9.33;7.30;;;16.00;65.20;;;;;;6155450;28;20905;-64
2021/10/18 15:27:16;;;;;;;10.50;7.47;;;15.90;65.90;;;;;;6155228;28;20943;-63
2021/10/18 15:30:19;;;;;;;10.53;7.93;;;15.70;66.80;;;;;;6155329;28;20505;-62
2021/10/18 15:33:22;;;;;;;9.47;8.50;;;15.60;67.80;;;;;;6140591;28;20463;-65
2021/10/18 15:36:26;;;;;;;9.27;8.07;;;15.50;68.40;;;;;;6131590;28;20482;-64
2021/10/18 15:39:29;;;;;;;10.73;8.47;;;15.50;69.50;;;;;;6144877;28;20958;-66
2021/10/18 15:42:34;;;;;;;9.83;7.70;;;15.40;69.60;;;;;;6149296;28;20941;-64
2021/10/18 15:45:38;;;;;;;11.13;8.37;;;15.40;70.30;;;;;;6155366;28;20474;-64
2021/10/18 15:48:41;;;;;;;8.07;7.37;;;15.30;71.50;;;;;;6154961;28;20470;-65
2021/10/18 15:51:44;;;;;;;8.80;7.53;;;15.20;72.00;;;;;;6154567;28;20470;-65
2021/10/18 15:54:47;;;;;;;11.13;7.93;;;15.10;73.10;;;;;;6154890;28;20801;-64
2021/10/18 15:57:53;;;;;;;9.90;8.90;;;15.00;73.80;;;;;;6126707;28;20479;-63
2021/10/18 16:00:56;;;;;;;9.13;8.20;;;15.00;74.40;;;;;;6136103;28;20490;-63
2021/10/18 16:03:59;;;;;;;9.43;7.93;;;14.90;75.20;;;;;;6153344;28;20982;-63
2021/10/18 16:07:03;;;;;;;9.50;8.57;;;14.90;76.20;;;;;;6154010;28;20485;-63
2021/10/18 16:10:07;;;;;;;11.43;9.10;;;14.80;77.30;;;;;;6150712;28;20489;-63
2021/10/18 16:13:16;;;;;;;9.73;8.03;;;14.70;77.90;;;;;;6143975;28;20482;-63
2021/10/18 16:16:19;;;;;;;10.73;8.30;;;14.70;78.90;;;;;;6154888;28;20493;-62
2021/10/18 16:19:23;;;;;;;9.13;8.30;;;14.50;80.00;;;;;;6154932;28;20470;-63
2021/10/18 16:22:26;;;;;;;9.20;8.23;;;14.40;81.10;;;;;;6155409;28;20477;-62
2021/10/18 16:25:29;;;;;;;10.03;7.87;;;14.40;82.60;;;;;;6155275;28;20482;-62
2021/10/18 16:28:34;;;;;;;12.20;9.80;;;14.40;83.60;;;;;;6154620;28;20478;-61
2021/10/18 16:31:37;;;;;;;11.07;10.00;;;14.30;84.50;;;;;;6154471;28;20821;-62
2021/10/18 16:34:40;;;;;;;10.07;9.07;;;14.40;85.30;;;;;;6155001;28;20490;-62
2021/10/18 16:37:44;;;;;;;13.10;9.67;;;14.40;85.80;;;;;;6154984;28;20498;-62
2021/10/18 16:40:48;;;;;;;12.17;9.90;;;14.40;86.40;;;;;;6154872;28;20569;-61
2021/10/18 16:43:52;;;;;;;12.50;9.87;;;14.30;87.10;;;;;;6154851;28;20530;-61
2021/10/18 16:46:56;;;;;;;13.97;10.30;;;14.20;87.90;;;;;;6153985;28;20493;-61
2021/10/18 16:49:59;;;;;;;10.27;8.70;;;14.20;88.80;;;;;;6153709;28;20962;-62
2021/10/18 16:53:02;;;;;;;11.53;8.77;;;14.20;89.40;;;;;;6153305;28;20491;-62
2021/10/18 16:56:05;;;;;;;12.73;10.10;;;14.20;90.10;;;;;;6153210;28;20807;-63
2021/10/18 16:59:10;;;;;;;13.20;11.13;;;14.10;90.50;;;;;;6153291;28;20475;-63
2021/10/18 17:02:16;;;;;;;16.13;10.80;;;14.00;90.90;;;;;;6152497;28;20505;-62
2021/10/18 17:05:19;;;;;;;15.83;12.33;;;14.00;91.40;;;;;;6148497;28;20487;-63